Time;durP1;ratioP1;P1;durP2;ratioP2;P2;SDS_P1;SDS_P2;PMS_P1;PMS_P2;Temp;Humidity;BMP_temperature;BMP_pressure;BME280_temperature;BME280_humidity;BME280_pressure;Samples;Min_cycle;Max_cycle;Signal;HPM_P1;HPM_P2
2022/10/22 00:01:57;;;;;;;4.80;2.60;;;;;;;4.74;68.78;100400.56;25417;1329;3048951;-69
2022/10/22 00:04:26;;;;;;;5.70;2.90;;;;;;;4.71;68.84;100402.00;25442;1333;3027043;-65
2022/10/22 00:06:57;;;;;;;5.60;2.50;;;;;;;4.69;69.21;100392.33;25437;1329;3069102;-67
2022/10/22 00:09:27;;;;;;;4.80;2.70;;;;;;;4.65;69.32;100382.02;25419;1324;3027983;-73
2022/10/22 00:11:56;;;;;;;6.10;3.40;;;;;;;4.68;69.05;100381.42;25451;1334;3026515;-71
2022/10/22 00:14:25;;;;;;;6.10;3.10;;;;;;;4.58;69.54;100379.21;25435;1331;3069144;-75
2022/10/22 00:16:55;;;;;;;3.90;2.90;;;;;;;4.61;69.21;100381.92;25453;1331;3025372;-76
2022/10/22 00:19:26;;;;;;;4.60;2.90;;;;;;;4.60;69.32;100374.66;25471;1331;3050198;-68
2022/10/22 00:21:57;;;;;;;4.20;2.70;;;;;;;4.62;69.03;100378.08;25469;1323;3027285;-65
2022/10/22 00:24:26;;;;;;;4.90;2.50;;;;;;;4.69;68.74;100377.25;25481;1330;3027162;-70
2022/10/22 00:26:55;;;;;;;6.10;2.80;;;;;;;4.71;68.79;100378.40;25459;1331;3026321;-69
2022/10/22 00:29:25;;;;;;;5.30;2.50;;;;;;;4.75;68.91;100375.73;25427;1331;3026131;-67
2022/10/22 00:31:54;;;;;;;4.20;2.70;;;;;;;4.78;68.79;100372.18;25475;1330;3048274;-67
2022/10/22 00:34:23;;;;;;;4.60;2.70;;;;;;;4.83;68.69;100369.47;25459;1325;3028140;-70
2022/10/22 00:36:53;;;;;;;7.40;3.20;;;;;;;4.85;68.88;100364.05;25446;1337;3069741;-65
2022/10/22 00:39:22;;;;;;;5.70;3.00;;;;;;;4.83;68.82;100362.88;25463;1331;3025923;-67
2022/10/22 00:41:52;;;;;;;6.90;3.40;;;;;;;4.91;68.72;100360.95;25465;1328;3049597;-68
2022/10/22 00:44:58;;;;;;;5.50;3.00;;;;;;;4.94;68.51;100359.33;25444;1331;3027388;-70
2022/10/22 00:47:35;;;;;;;5.80;3.30;;;;;;;4.84;69.17;100353.48;25463;1325;3050199;-70
2022/10/22 00:50:05;;;;;;;6.30;3.40;;;;;;;4.83;68.96;100351.41;25362;1339;3056890;-68
2022/10/22 00:52:35;;;;;;;5.80;3.50;;;;;;;4.78;68.84;100348.73;25427;1323;3027651;-69
2022/10/22 00:55:04;;;;;;;5.90;3.00;;;;;;;4.78;68.79;100348.23;25460;1324;3025953;-73
2022/10/22 00:57:34;;;;;;;5.50;3.40;;;;;;;4.78;69.07;100355.50;25461;1331;3056706;-67
2022/10/22 01:00:03;;;;;;;5.60;3.10;;;;;;;4.72;68.86;100350.96;25456;1331;3027242;-67
2022/10/22 01:02:33;;;;;;;9.10;3.40;;;;;;;4.73;69.29;100346.96;25463;1328;3049679;-67
2022/10/22 01:05:01;;;;;;;9.60;4.50;;;;;;;4.69;69.36;100349.63;25465;1328;3026128;-70
2022/10/22 01:07:31;;;;;;;7.40;3.40;;;;;;;4.65;69.86;100349.72;25457;1331;3069410;-71
2022/10/22 01:10:06;;;;;;;7.10;3.60;;;;;;;4.65;69.69;100344.19;25429;1331;3027066;-63
2022/10/22 01:12:43;;;;;;;9.40;3.40;;;;;;;4.66;69.57;100343.11;25456;1338;3050299;-72
2022/10/22 01:15:23;;;;;;;6.60;3.80;;;;;;;4.62;69.91;100340.92;25446;1330;3069424;-69
2022/10/22 01:18:09;;;;;;;8.00;3.90;;;;;;;4.59;70.07;100340.67;25364;1342;3049653;-72
2022/10/22 01:20:44;;;;;;;7.40;3.20;;;;;;;4.61;69.80;100343.75;25460;1329;3056157;-69
2022/10/22 01:23:22;;;;;;;5.70;3.00;;;;;;;4.62;69.98;100344.23;25457;1331;3051252;-72
2022/10/22 01:26:10;;;;;;;10.60;3.80;;;;;;;4.54;70.61;100336.42;25442;1325;3053177;-68
2022/10/22 01:29:07;;;;;;;12.00;3.40;;;;;;;4.48;70.89;100335.69;25437;1334;3051143;-69
2022/10/22 01:31:40;;;;;;;8.60;3.80;;;;;;;4.49;70.68;100330.98;25357;1330;3053222;-70
2022/10/22 01:34:09;;;;;;;7.20;3.30;;;;;;;4.42;70.88;100334.59;25478;1330;3027634;-64
2022/10/22 01:36:39;;;;;;;7.90;3.40;;;;;;;4.46;70.93;100333.64;25413;1336;3027360;-63
2022/10/22 01:39:07;;;;;;;6.90;3.80;;;;;;;4.40;71.22;100331.87;25427;1331;3027379;-66
2022/10/22 01:41:38;;;;;;;4.60;2.40;;;;;;;4.27;71.92;100338.22;25413;1334;3048716;-67
2022/10/22 01:44:22;;;;;;;6.10;2.30;;;;;;;4.75;71.28;100339.26;25424;1335;3026703;-73
2022/10/22 01:47:20;;;;;;;4.10;2.30;;;;;;;5.36;68.61;100340.09;25466;1321;3049735;-66
2022/10/22 01:50:02;;;;;;;3.80;1.90;;;;;;;5.48;68.20;100337.69;25417;1322;3057834;-72
2022/10/22 01:52:52;;;;;;;4.50;2.60;;;;;;;5.31;68.42;100338.45;25470;1323;3052785;-70
2022/10/22 01:55:32;;;;;;;4.60;3.10;;;;;;;5.16;68.95;100332.41;25430;1330;3052557;-72
2022/10/22 01:58:32;;;;;;;5.40;3.50;;;;;;;4.88;70.19;100340.52;25416;1334;3051844;-77
2022/10/22 02:01:36;;;;;;;4.20;3.00;;;;;;;4.70;71.07;100349.10;25426;1330;3052929;-77
2022/10/22 02:04:21;;;;;;;6.30;3.40;;;;;;;4.58;71.73;100338.77;25425;1333;3050286;-74
2022/10/22 02:06:50;;;;;;;5.90;3.30;;;;;;;4.47;72.10;100343.51;25427;1327;3069106;-69
2022/10/22 02:09:19;;;;;;;8.20;3.90;;;;;;;4.37;72.29;100343.05;25433;1337;3026917;-73
2022/10/22 02:11:50;;;;;;;7.70;3.80;;;;;;;4.26;72.74;100348.13;25435;1328;3050093;-72
2022/10/22 02:14:19;;;;;;;7.60;3.90;;;;;;;4.22;73.20;100346.13;25419;1331;3027302;-67
2022/10/22 02:16:48;;;;;;;7.20;3.80;;;;;;;4.06;74.09;100348.52;25426;1331;3027878;-74
2022/10/22 02:19:23;;;;;;;6.00;3.70;;;;;;;3.98;74.58;100348.52;25416;1325;3048961;-68
2022/10/22 02:21:52;;;;;;;6.00;3.80;;;;;;;4.01;73.99;100357.30;25451;1327;3068941;-66
2022/10/22 02:24:21;;;;;;;7.80;4.30;;;;;;;3.83;74.99;100344.63;25442;1331;3025821;-70
2022/10/22 02:26:58;;;;;;;4.80;2.50;;;;;;;3.71;76.18;100349.36;25433;1323;3026799;-70
2022/10/22 02:29:29;;;;;;;5.60;2.70;;;;;;;4.26;74.71;100353.31;25421;1337;3052895;-67
2022/10/22 02:31:58;;;;;;;9.50;3.70;;;;;;;4.87;72.49;100348.02;25413;1334;3026564;-68
2022/10/22 02:34:29;;;;;;;5.50;3.40;;;;;;;5.09;71.37;100342.28;25372;1326;3026580;-71
2022/10/22 02:36:59;;;;;;;5.90;3.70;;;;;;;4.84;71.37;100346.19;25421;1331;3052421;-66
2022/10/22 02:39:28;;;;;;;7.40;3.80;;;;;;;4.62;72.09;100347.21;25425;1337;3027331;-73
2022/10/22 02:41:57;;;;;;;7.20;3.80;;;;;;;4.38;72.87;100350.65;25425;1330;3028070;-70
2022/10/22 02:44:27;;;;;;;6.60;3.60;;;;;;;4.31;73.04;100354.78;25456;1324;3026377;-71
2022/10/22 02:46:55;;;;;;;8.00;3.60;;;;;;;4.11;73.99;100358.14;25454;1336;3026746;-77
2022/10/22 02:49:24;;;;;;;7.90;3.90;;;;;;;4.07;73.83;100358.21;25410;1325;3051218;-69
2022/10/22 02:51:54;;;;;;;7.50;4.30;;;;;;;4.00;74.03;100357.81;25466;1332;3027377;-73
2022/10/22 02:54:23;;;;;;;8.80;4.70;;;;;;;3.88;74.35;100363.24;25427;1334;3027169;-70
2022/10/22 02:56:53;;;;;;;8.50;4.90;;;;;;;3.62;75.92;100363.73;25459;1330;3026488;-74
2022/10/22 02:59:22;;;;;;;10.00;4.60;;;;;;;3.70;75.45;100366.54;25465;1333;3026289;-67
2022/10/22 03:01:51;;;;;;;6.00;3.50;;;;;;;3.80;75.23;100362.36;25467;1329;3047725;-67
2022/10/22 03:04:19;;;;;;;8.00;3.90;;;;;;;4.36;75.35;100364.05;25441;1331;3026181;-67
2022/10/22 03:06:48;;;;;;;6.30;3.40;;;;;;;5.10;73.36;100362.94;25452;1331;3052290;-70
2022/10/22 03:09:17;;;;;;;6.20;4.00;;;;;;;5.17;71.96;100372.32;25405;1339;3025904;-72
2022/10/22 03:11:46;;;;;;;7.10;4.10;;;;;;;4.92;71.58;100368.04;25427;1329;3052190;-71
2022/10/22 03:14:16;;;;;;;8.20;4.90;;;;;;;4.70;72.54;100370.95;25435;1337;3025135;-67
2022/10/22 03:16:48;;;;;;;6.30;4.50;;;;;;;4.36;73.65;100381.06;25427;1334;3026553;-67
2022/10/22 03:19:16;;;;;;;8.80;4.60;;;;;;;4.09;74.59;100379.69;25410;1337;3028356;-67
2022/10/22 03:21:59;;;;;;;10.70;4.60;;;;;;;3.91;75.12;100375.85;25437;1330;3052590;-70
2022/10/22 03:24:37;;;;;;;10.60;4.60;;;;;;;3.87;75.01;100378.17;25443;1331;3050026;-66
2022/10/22 03:27:09;;;;;;;9.90;5.20;;;;;;;3.81;74.99;100374.48;25444;1330;3068815;-73
2022/10/22 03:29:38;;;;;;;9.50;4.70;;;;;;;3.49;76.44;100370.17;25449;1330;3026859;-70
2022/10/22 03:32:08;;;;;;;11.30;5.00;;;;;;;3.60;75.73;100372.42;25441;1327;3028313;-68
2022/10/22 03:34:37;;;;;;;6.30;3.30;;;;;;;3.50;75.93;100375.02;25458;1324;3026898;-67
2022/10/22 03:37:06;;;;;;;8.50;4.30;;;;;;;4.07;75.90;100374.30;25448;1337;3050153;-70
2022/10/22 03:39:36;;;;;;;9.80;4.50;;;;;;;4.50;73.82;100372.79;25422;1334;3028280;-71
2022/10/22 03:42:07;;;;;;;11.60;4.80;;;;;;;4.90;72.88;100367.73;25432;1338;3028083;-67
2022/10/22 03:44:36;;;;;;;10.70;5.30;;;;;;;4.91;71.74;100366.84;25430;1331;3025787;-68
2022/10/22 03:47:05;;;;;;;10.70;5.30;;;;;;;4.76;71.82;100366.82;25402;1334;3026063;-72
2022/10/22 03:49:34;;;;;;;10.60;5.40;;;;;;;4.45;72.54;100368.72;25445;1323;3051484;-71
2022/10/22 03:52:08;;;;;;;8.80;4.90;;;;;;;4.18;73.21;100367.19;25434;1325;3027897;-74
2022/10/22 03:54:37;;;;;;;13.80;5.80;;;;;;;3.99;73.78;100370.15;25392;1334;3026054;-65
2022/10/22 03:57:06;;;;;;;9.10;4.90;;;;;;;3.90;74.16;100375.70;25442;1331;3027694;-67
2022/10/22 03:59:40;;;;;;;9.70;5.50;;;;;;;3.66;75.09;100368.15;25433;1324;3027438;-66
2022/10/22 04:02:11;;;;;;;11.50;5.50;;;;;;;3.62;75.03;100370.65;25427;1337;3052066;-67
2022/10/22 04:04:41;;;;;;;11.00;6.00;;;;;;;3.53;75.37;100363.53;25444;1331;3027431;-76
2022/10/22 04:07:10;;;;;;;6.90;3.70;;;;;;;3.38;76.36;100362.41;25455;1331;3027197;-69
2022/10/22 04:09:41;;;;;;;6.20;4.00;;;;;;;4.03;75.81;100363.30;25434;1331;3050711;-71
2022/10/22 04:12:10;;;;;;;8.50;4.80;;;;;;;4.85;73.76;100370.65;25465;1331;3027178;-71
2022/10/22 04:14:41;;;;;;;16.30;5.20;;;;;;;5.01;72.27;100363.83;25437;1330;3051788;-68
2022/10/22 04:17:10;;;;;;;9.20;5.20;;;;;;;4.65;72.66;100373.33;25447;1331;3027658;-69
2022/10/22 04:19:41;;;;;;;10.60;5.90;;;;;;;4.56;72.56;100370.92;25435;1337;3053245;-67
2022/10/22 04:22:10;;;;;;;12.70;5.70;;;;;;;4.27;73.34;100370.65;25449;1337;3028820;-68
2022/10/22 04:24:39;;;;;;;10.30;5.60;;;;;;;4.07;74.02;100372.09;25439;1330;3027579;-71
2022/10/22 04:27:09;;;;;;;15.90;5.90;;;;;;;4.11;73.55;100364.55;25430;1327;3051655;-70
2022/10/22 04:29:38;;;;;;;10.60;6.20;;;;;;;3.95;74.06;100364.50;25459;1331;3027462;-67
2022/10/22 04:32:08;;;;;;;15.50;6.00;;;;;;;3.78;74.77;100365.36;25449;1331;3056317;-68
2022/10/22 04:34:38;;;;;;;13.30;6.50;;;;;;;3.57;75.67;100367.63;25452;1333;3027295;-66
2022/10/22 04:37:06;;;;;;;8.70;4.30;;;;;;;3.54;76.15;100367.33;25442;1331;3026407;-67
2022/10/22 04:39:35;;;;;;;11.00;5.00;;;;;;;4.19;75.11;100366.99;25439;1331;3054969;-65
2022/10/22 04:42:05;;;;;;;13.30;5.60;;;;;;;4.53;73.81;100365.77;25451;1339;3025988;-70
2022/10/22 04:44:34;;;;;;;9.30;5.10;;;;;;;4.57;72.73;100366.91;25456;1330;3049920;-65
2022/10/22 04:47:03;;;;;;;11.60;5.70;;;;;;;4.51;73.09;100370.52;25441;1331;3026330;-68
2022/10/22 04:49:34;;;;;;;11.50;5.90;;;;;;;4.39;73.77;100377.17;25449;1329;3026712;-71
2022/10/22 04:52:03;;;;;;;11.20;5.70;;;;;;;4.23;73.88;100376.79;25453;1329;3027195;-70
2022/10/22 04:54:32;;;;;;;11.60;6.10;;;;;;;4.18;74.27;100380.36;25451;1329;3057163;-71
2022/10/22 04:57:01;;;;;;;14.20;6.90;;;;;;;4.12;74.38;100383.25;25448;1324;3028184;-67
2022/10/22 04:59:30;;;;;;;13.50;6.40;;;;;;;4.03;75.36;100389.67;25452;1323;3048816;-67
2022/10/22 05:01:59;;;;;;;15.10;7.10;;;;;;;4.09;75.05;100389.55;25447;1331;3025825;-66
2022/10/22 05:04:28;;;;;;;11.00;6.00;;;;;;;4.09;75.38;100391.65;25432;1324;3069237;-70
2022/10/22 05:06:58;;;;;;;11.70;4.70;;;;;;;4.02;75.76;100396.45;25446;1331;3026857;-71
2022/10/22 05:09:27;;;;;;;10.20;4.30;;;;;;;4.48;75.56;100403.86;25453;1329;3027473;-71
2022/10/22 05:11:56;;;;;;;12.10;5.30;;;;;;;5.07;73.99;100401.56;25446;1324;3068880;-67
2022/10/22 05:14:26;;;;;;;12.40;6.00;;;;;;;5.14;73.29;100402.45;25462;1324;3024934;-70
2022/10/22 05:16:55;;;;;;;11.10;6.10;;;;;;;5.22;72.88;100405.02;25450;1331;3027471;-69
2022/10/22 05:19:27;;;;;;;12.40;6.50;;;;;;;5.00;73.45;100405.20;25459;1331;3026897;-68
2022/10/22 05:22:01;;;;;;;12.20;6.80;;;;;;;5.04;72.97;100402.16;25462;1330;3052989;-69
2022/10/22 05:24:32;;;;;;;15.00;6.50;;;;;;;4.58;74.13;100407.84;25442;1331;3027579;-67
2022/10/22 05:27:01;;;;;;;10.40;6.00;;;;;;;4.34;75.05;100409.37;25465;1323;3027154;-74
2022/10/22 05:29:31;;;;;;;11.80;6.60;;;;;;;4.27;75.55;100407.95;25446;1324;3026198;-65
2022/10/22 05:32:00;;;;;;;13.10;7.50;;;;;;;4.21;76.11;100410.83;25444;1332;3051711;-67
2022/10/22 05:34:29;;;;;;;14.70;7.00;;;;;;;4.25;76.01;100413.02;25458;1331;3026837;-70
2022/10/22 05:37:00;;;;;;;10.10;5.30;;;;;;;4.11;77.24;100412.05;25461;1331;3053909;-67
2022/10/22 05:39:29;;;;;;;8.00;4.40;;;;;;;4.51;77.27;100415.76;25439;1330;3027484;-69
2022/10/22 05:41:58;;;;;;;12.00;5.50;;;;;;;5.41;74.64;100418.65;25444;1331;3052036;-74
2022/10/22 05:44:27;;;;;;;15.10;6.50;;;;;;;5.67;73.60;100415.58;25406;1331;3025874;-72
2022/10/22 05:46:56;;;;;;;13.20;7.20;;;;;;;5.72;73.22;100418.08;25451;1331;3055436;-66
2022/10/22 05:49:25;;;;;;;11.90;7.10;;;;;;;5.57;73.67;100411.67;25443;1323;3025149;-70
2022/10/22 05:51:58;;;;;;;14.70;7.40;;;;;;;5.53;73.38;100420.09;25451;1325;3049470;-64
2022/10/22 05:54:27;;;;;;;18.40;7.80;;;;;;;5.28;74.50;100420.88;25429;1319;3027041;-73
2022/10/22 05:56:56;;;;;;;16.30;7.90;;;;;;;5.12;76.05;100421.06;25419;1333;3069205;-65
2022/10/22 05:59:25;;;;;;;12.50;6.60;;;;;;;5.19;76.50;100418.48;25437;1333;3027024;-69
2022/10/22 06:01:54;;;;;;;9.80;6.50;;;;;;;5.28;76.09;100418.80;25429;1329;3049069;-64
2022/10/22 06:04:24;;;;;;;9.40;4.40;;;;;;;5.28;76.74;100424.17;25423;1326;3026833;-67
2022/10/22 06:06:53;;;;;;;8.00;4.40;;;;;;;5.81;76.15;100420.80;25423;1332;3027117;-69
2022/10/22 06:09:26;;;;;;;10.90;5.70;;;;;;;6.32;73.72;100413.56;25425;1334;3050818;-71
2022/10/22 06:11:56;;;;;;;13.30;6.60;;;;;;;6.58;72.76;100409.52;25411;1327;3068278;-70
2022/10/22 06:14:26;;;;;;;15.60;7.30;;;;;;;6.71;72.48;100412.80;25445;1331;3026541;-72
2022/10/22 06:16:58;;;;;;;10.20;5.80;;;;;;;6.65;72.50;100412.28;25452;1338;3027058;-66
2022/10/22 06:23:03;;;;;;;15.80;7.90;;;;;;;6.76;72.37;100405.16;30658;1337;3013670;-72
2022/10/22 06:25:32;;;;;;;17.00;8.00;;;;;;;6.43;73.72;100402.11;24466;1339;3027770;-71
2022/10/22 06:28:03;;;;;;;19.50;8.70;;;;;;;6.44;74.34;100402.27;24331;1340;3029315;-69
2022/10/22 06:30:32;;;;;;;18.90;9.30;;;;;;;6.55;73.84;100403.35;24448;1339;3027899;-70
2022/10/22 06:33:01;;;;;;;21.40;9.00;;;;;;;6.64;73.65;100403.95;24430;1339;3068793;-74
2022/10/22 06:35:32;;;;;;;15.20;6.10;;;;;;;6.76;73.51;100399.23;24048;1333;3038451;-73
2022/10/22 06:38:05;;;;;;;14.00;6.70;;;;;;;7.39;71.57;100393.95;24478;1337;3048877;-71
2022/10/22 06:40:34;;;;;;;10.50;5.80;;;;;;;7.98;69.37;100397.41;24506;1336;3026446;-69
2022/10/22 06:43:05;;;;;;;16.00;6.30;;;;;;;8.12;68.75;100400.23;24556;1336;3029244;-67
2022/10/22 06:45:35;;;;;;;14.40;7.00;;;;;;;7.84;69.35;100395.60;24537;1332;3026518;-71
2022/10/22 06:48:04;;;;;;;16.00;7.60;;;;;;;7.61;70.47;100397.61;24494;1336;3027820;-68
2022/10/22 06:50:34;;;;;;;13.50;6.90;;;;;;;7.58;70.86;100398.05;24486;1322;3050164;-67
2022/10/22 06:53:03;;;;;;;13.10;6.10;;;;;;;7.48;71.08;100401.70;24533;1336;3027253;-72
2022/10/22 06:55:34;;;;;;;11.60;6.20;;;;;;;7.32;71.67;100405.35;24485;1335;3069199;-70
2022/10/22 06:58:03;;;;;;;15.90;6.10;;;;;;;7.33;72.16;100404.27;24528;1343;3026874;-69
2022/10/22 07:00:32;;;;;;;11.60;6.10;;;;;;;7.27;72.22;100405.69;24582;1333;3025379;-70
2022/10/22 07:03:01;;;;;;;12.00;5.50;;;;;;;7.20;72.80;100408.34;24568;1326;3068492;-66
2022/10/22 07:05:33;;;;;;;11.30;5.30;;;;;;;7.20;72.76;100406.27;24580;1333;3026976;-68
2022/10/22 07:08:02;;;;;;;11.30;5.40;;;;;;;7.23;72.48;100404.75;24545;1332;3027882;-74
2022/10/22 07:10:32;;;;;;;11.00;6.50;;;;;;;7.15;73.07;100408.86;24569;1322;3026874;-71
2022/10/22 07:13:02;;;;;;;6.90;4.10;;;;;;;7.03;73.74;100410.28;24519;1324;3028288;-68
2022/10/22 07:15:33;;;;;;;7.10;4.00;;;;;;;7.50;72.85;100405.64;24654;1318;3027105;-73
2022/10/22 07:18:03;;;;;;;8.60;4.30;;;;;;;7.96;70.88;100407.41;24556;1333;3025639;-70
2022/10/22 07:20:32;;;;;;;9.40;5.00;;;;;;;8.22;69.97;100408.41;24518;1340;3026930;-73
2022/10/22 07:23:01;;;;;;;9.40;4.90;;;;;;;8.30;69.62;100410.21;24585;1326;3027876;-68
2022/10/22 07:25:30;;;;;;;8.40;4.90;;;;;;;8.30;69.57;100410.40;24506;1331;3052768;-69
2022/10/22 07:27:59;;;;;;;12.10;5.50;;;;;;;8.19;70.11;100410.44;24586;1326;3027753;-69
2022/10/22 07:30:28;;;;;;;7.10;4.60;;;;;;;8.05;70.49;100413.73;24532;1326;3051012;-67
2022/10/22 07:32:57;;;;;;;8.60;4.40;;;;;;;8.14;70.32;100407.66;24574;1333;3028378;-69
2022/10/22 07:35:28;;;;;;;9.00;4.00;;;;;;;8.15;70.63;100401.68;24554;1337;3027797;-72
2022/10/22 07:37:57;;;;;;;8.80;4.20;;;;;;;8.23;70.50;100402.45;24442;1337;3025900;-67
2022/10/22 07:40:26;;;;;;;6.90;4.30;;;;;;;8.07;70.45;100399.88;24547;1332;3052435;-66
2022/10/22 07:42:55;;;;;;;8.40;4.70;;;;;;;8.16;70.58;100394.50;24592;1323;3026453;-68
2022/10/22 07:45:23;;;;;;;8.10;4.70;;;;;;;8.24;70.47;100390.89;24628;1315;3051324;-66
2022/10/22 07:47:52;;;;;;;9.80;5.00;;;;;;;8.28;70.60;100395.11;24640;1315;3026267;-67
2022/10/22 07:50:21;;;;;;;7.20;4.00;;;;;;;8.23;71.09;100405.25;24562;1339;3053756;-68
2022/10/22 07:52:50;;;;;;;6.80;4.20;;;;;;;8.13;71.65;100398.28;24586;1333;3027094;-70
2022/10/22 07:55:19;;;;;;;8.10;5.20;;;;;;;8.25;71.57;100400.28;24543;1333;3054477;-67
2022/10/22 09:05:50;;;;;;;3.60;2.30;;;;;;;9.64;64.14;100362.60;24521;1333;3050630;-72
2022/10/22 09:08:20;;;;;;;3.70;2.10;;;;;;;9.65;64.11;100365.33;24508;1324;3056646;-68
2022/10/22 09:10:53;;;;;;;5.40;2.50;;;;;;;9.75;63.52;100370.30;24588;1339;3025978;-68
2022/10/22 09:13:23;;;;;;;4.10;2.50;;;;;;;9.67;63.54;100364.91;24483;1332;3050886;-70
2022/10/22 09:15:58;;;;;;;3.30;2.20;;;;;;;9.65;63.48;100366.56;24551;1332;3029607;-70
2022/10/22 09:19:01;;;;;;;3.90;2.60;;;;;;;9.47;63.70;100365.73;24554;1331;3069704;-64
2022/10/22 09:21:43;;;;;;;5.20;2.30;;;;;;;9.54;63.49;100363.88;24551;1329;3049760;-65
2022/10/22 09:24:35;;;;;;;3.90;2.20;;;;;;;9.56;63.41;100365.86;24564;1332;3057710;-67
2022/10/22 09:27:13;;;;;;;8.00;3.50;;;;;;;9.69;63.55;100363.08;24519;1339;3056033;-70
2022/10/22 09:32:08;;;;;;;3.90;2.20;;;;;;;10.20;62.37;100355.42;30823;1337;3013252;-70
2022/10/22 09:34:39;;;;;;;5.20;2.20;;;;;;;10.17;61.58;100354.70;24487;1336;3028813;-70
2022/10/22 09:37:08;;;;;;;4.10;2.50;;;;;;;10.28;61.39;100346.34;24493;1335;3028785;-73
2022/10/22 09:39:44;;;;;;;5.30;2.30;;;;;;;10.45;60.96;100346.27;24463;1349;3049558;-69
2022/10/22 09:42:15;;;;;;;3.00;2.00;;;;;;;10.59;60.69;100342.65;24488;1336;3070010;-71
2022/10/22 09:44:51;;;;;;;2.00;1.60;;;;;;;10.98;60.05;100342.19;23996;1336;3037033;-74
2022/10/22 09:47:33;;;;;;;3.80;2.00;;;;;;;11.04;58.90;100348.77;24596;1322;3055710;-73
2022/10/22 09:50:08;;;;;;;3.60;2.20;;;;;;;10.86;59.19;100346.13;24560;1327;3053577;-68
2022/10/22 09:52:38;;;;;;;5.90;3.00;;;;;;;10.84;59.30;100339.74;24601;1330;3053009;-69
2022/10/22 09:55:17;;;;;;;3.80;2.00;;;;;;;10.70;59.92;100339.30;24548;1319;3027728;-69
2022/10/22 09:57:58;;;;;;;2.90;1.70;;;;;;;10.66;59.81;100334.96;24569;1334;3053249;-68
2022/10/22 10:00:27;;;;;;;1.90;1.50;;;;;;;10.85;59.41;100325.64;24604;1332;3049257;-67
2022/10/22 10:02:57;;;;;;;1.30;1.00;;;;;;;10.89;59.46;100320.71;24604;1330;3025793;-67
2022/10/22 10:05:32;;;;;;;2.50;1.70;;;;;;;10.88;59.40;100320.58;24633;1330;3027385;-68
2022/10/22 10:08:10;;;;;;;1.90;1.20;;;;;;;10.98;59.23;100308.91;24618;1325;3057094;-68
2022/10/22 10:10:48;;;;;;;1.90;1.10;;;;;;;10.98;58.55;100298.20;24580;1330;3052835;-74
2022/10/22 10:13:33;;;;;;;2.20;1.60;;;;;;;11.15;58.58;100293.84;24558;1339;3053600;-70
2022/10/22 10:16:24;;;;;;;1.70;1.00;;;;;;;11.18;58.71;100292.49;24558;1333;3051549;-66
2022/10/22 10:19:18;;;;;;;3.40;1.40;;;;;;;11.24;58.46;100289.54;24619;1332;3052861;-67
2022/10/22 10:22:06;;;;;;;2.40;1.40;;;;;;;11.23;58.37;100286.79;24590;1331;3050883;-66
2022/10/22 10:25:05;;;;;;;2.50;1.40;;;;;;;11.12;58.57;100287.38;24607;1331;3070619;-70
2022/10/22 10:27:55;;;;;;;1.10;1.00;;;;;;;10.86;59.54;100287.91;24611;1333;3050265;-68
2022/10/22 10:30:25;;;;;;;1.60;1.10;;;;;;;10.89;59.33;100290.92;24610;1339;3056466;-68
2022/10/22 10:33:14;;;;;;;1.60;0.90;;;;;;;11.00;59.24;100289.02;24573;1331;3025975;-65
2022/10/22 10:35:58;;;;;;;1.60;1.00;;;;;;;10.81;59.08;100293.39;24596;1339;3053575;-69
2022/10/22 10:38:30;;;;;;;2.00;1.10;;;;;;;10.92;59.45;100286.04;24596;1323;3051140;-68
2022/10/22 10:41:22;;;;;;;2.50;1.10;;;;;;;10.80;59.88;100287.67;24586;1325;3029368;-64
2022/10/22 10:44:10;;;;;;;5.50;3.70;;;;;;;10.78;60.42;100282.70;24570;1339;3049565;-72
2022/10/22 10:46:49;;;;;;;5.00;3.30;;;;;;;10.88;60.29;100272.41;24525;1325;3069673;-72
2022/10/22 10:49:23;;;;;;;2.30;1.60;;;;;;;11.06;60.04;100266.44;24565;1330;3049969;-70
2022/10/22 10:51:58;;;;;;;1.90;1.40;;;;;;;11.22;59.44;100262.27;24580;1333;3025254;-67
2022/10/22 10:54:36;;;;;;;3.50;1.30;;;;;;;11.21;58.69;100261.49;24563;1330;3053683;-68
2022/10/22 10:57:24;;;;;;;2.90;1.30;;;;;;;11.05;59.65;100259.84;24591;1322;3053070;-70
2022/10/22 11:00:00;;;;;;;3.10;1.40;;;;;;;11.20;59.34;100256.28;24592;1325;3050758;-64
2022/10/22 11:03:25;;;;;;;2.20;1.30;;;;;;;11.31;58.99;100248.85;24594;1322;3053211;-71
2022/10/22 11:05:54;;;;;;;4.30;2.10;;;;;;;11.54;58.91;100246.27;24548;1331;3049199;-63
2022/10/22 11:08:40;;;;;;;2.20;1.40;;;;;;;11.64;58.32;100250.33;24584;1332;3026963;-67
2022/10/22 11:11:41;;;;;;;2.00;1.10;;;;;;;11.55;58.16;100246.23;24558;1331;3049239;-67
2022/10/22 11:14:13;;;;;;;2.70;1.10;;;;;;;11.35;58.72;100240.45;24569;1332;3057442;-68
2022/10/22 11:16:44;;;;;;;4.40;1.60;;;;;;;11.35;58.81;100232.70;24551;1327;3052180;-70
2022/10/22 11:19:19;;;;;;;1.40;1.20;;;;;;;11.33;59.53;100232.81;24557;1332;3028100;-71
2022/10/22 11:21:52;;;;;;;2.30;1.50;;;;;;;11.35;59.58;100231.15;24547;1330;3050374;-67
2022/10/22 11:24:29;;;;;;;2.60;1.40;;;;;;;11.52;59.14;100229.88;24601;1327;3025831;-63
2022/10/22 11:27:28;;;;;;;1.50;0.80;;;;;;;11.58;58.77;100225.73;24659;1330;3049949;-67
2022/10/22 11:30:20;;;;;;;1.50;1.10;;;;;;;11.62;57.90;100220.27;24531;1331;3068855;-69
2022/10/22 11:32:55;;;;;;;1.70;1.00;;;;;;;11.90;57.22;100219.12;24598;1321;3050383;-71
2022/10/22 11:35:32;;;;;;;2.50;1.50;;;;;;;11.99;57.13;100218.11;24571;1331;3056644;-70
2022/10/22 11:38:02;;;;;;;1.80;1.20;;;;;;;12.17;56.79;100213.48;24639;1330;3052629;-68
2022/10/22 11:40:35;;;;;;;1.70;1.20;;;;;;;12.21;56.54;100212.55;24668;1331;3028257;-65
2022/10/22 11:43:08;;;;;;;1.90;1.20;;;;;;;12.25;57.08;100208.97;24557;1321;3027033;-68
2022/10/22 11:45:39;;;;;;;1.90;1.10;;;;;;;12.15;56.89;100208.33;24622;1337;3052565;-68
2022/10/22 11:48:08;;;;;;;2.60;1.20;;;;;;;11.97;57.26;100210.31;24541;1337;3026276;-67
2022/10/22 11:50:40;;;;;;;1.40;1.00;;;;;;;12.18;56.70;100200.92;24626;1331;3028817;-69
2022/10/22 11:53:11;;;;;;;3.90;1.30;;;;;;;12.35;56.69;100191.76;24621;1331;3052431;-69
2022/10/22 11:55:54;;;;;;;1.20;0.90;;;;;;;12.22;56.10;100198.95;24598;1329;3027423;-64
2022/10/22 11:58:43;;;;;;;1.80;1.40;;;;;;;12.27;56.38;100192.71;24596;1331;3068750;-66
2022/10/22 12:01:12;;;;;;;2.30;0.90;;;;;;;12.26;56.23;100191.54;24526;1338;3050359;-66
2022/10/22 12:03:49;;;;;;;1.20;0.90;;;;;;;12.22;56.12;100187.02;24523;1336;3028903;-68
2022/10/22 12:06:27;;;;;;;1.80;0.90;;;;;;;12.27;55.98;100184.31;24570;1309;3051985;-68
2022/10/22 12:09:03;;;;;;;3.00;1.20;;;;;;;12.25;55.69;100188.06;24597;1322;3053838;-70
2022/10/22 12:11:40;;;;;;;1.70;1.00;;;;;;;12.21;55.92;100180.37;24620;1323;3051199;-68
2022/10/22 12:14:18;;;;;;;2.00;1.00;;;;;;;12.24;56.16;100180.04;24645;1336;3054087;-67
2022/10/22 12:17:06;;;;;;;1.80;1.10;;;;;;;12.30;56.35;100181.11;24706;1340;3049998;-72
2022/10/22 12:19:46;;;;;;;2.60;1.10;;;;;;;12.35;56.13;100178.39;24613;1330;3069399;-71
2022/10/22 12:22:23;;;;;;;2.80;1.30;;;;;;;12.42;55.91;100177.09;24687;1330;3050189;-67
2022/10/22 12:24:53;;;;;;;4.00;1.00;;;;;;;12.28;55.77;100174.40;24560;1330;3056775;-69
2022/10/22 12:27:25;;;;;;;2.00;1.20;;;;;;;12.30;56.08;100172.16;24561;1323;3026091;-71
2022/10/22 12:29:57;;;;;;;1.90;1.10;;;;;;;12.26;55.97;100172.20;24548;1336;3028026;-69
2022/10/22 12:32:34;;;;;;;5.30;1.90;;;;;;;12.36;55.79;100169.71;24566;1332;3026841;-70
2022/10/22 12:35:16;;;;;;;2.00;1.30;;;;;;;12.27;56.18;100173.58;24606;1322;3053117;-64
2022/10/22 12:37:49;;;;;;;2.00;1.10;;;;;;;12.27;56.13;100172.86;24626;1330;3050519;-66
2022/10/22 12:40:20;;;;;;;2.80;1.20;;;;;;;12.26;56.29;100171.73;24579;1332;3026084;-67
2022/10/22 12:42:51;;;;;;;2.70;1.20;;;;;;;12.15;56.28;100173.04;24605;1339;3028432;-67
2022/10/22 12:45:21;;;;;;;1.80;1.20;;;;;;;11.95;56.84;100180.23;24548;1330;3027291;-72
2022/10/22 12:47:54;;;;;;;1.90;0.90;;;;;;;11.88;56.92;100178.84;24590;1333;3025835;-67
2022/10/22 12:50:31;;;;;;;1.50;0.90;;;;;;;11.75;56.77;100184.27;24612;1333;3027002;-68
2022/10/22 12:53:01;;;;;;;3.20;1.10;;;;;;;11.81;56.91;100183.27;24626;1330;3049542;-67
2022/10/22 12:55:29;;;;;;;1.60;1.10;;;;;;;11.78;57.52;100176.58;24642;1329;3027686;-68